sensor_id;sensor_type;location;lat;lon;timestamp;P1;durP1;ratioP1;P2;durP2;ratioP2
54406;SDS011;40313;50.308;30.374;2023-03-11T00:00:41;16.02;;;13.07;;
54406;SDS011;40313;50.308;30.374;2023-03-11T00:03:10;16.77;;;12.95;;
54406;SDS011;40313;50.308;30.374;2023-03-11T00:05:38;16.55;;;13.75;;
54406;SDS011;40313;50.308;30.374;2023-03-11T00:08:10;20.50;;;13.48;;
54406;SDS011;40313;50.308;30.374;2023-03-11T00:10:38;15.35;;;13.82;;
54406;SDS011;40313;50.308;30.374;2023-03-11T00:13:07;18.70;;;13.88;;
54406;SDS011;40313;50.308;30.374;2023-03-11T00:15:35;19.38;;;14.65;;
54406;SDS011;40313;50.308;30.374;2023-03-11T00:18:03;14.55;;;12.98;;
54406;SDS011;40313;50.308;30.374;2023-03-11T00:20:31;17.05;;;13.48;;
54406;SDS011;40313;50.308;30.374;2023-03-11T00:22:59;17.65;;;13.30;;
54406;SDS011;40313;50.308;30.374;2023-03-11T00:25:28;19.45;;;13.68;;
54406;SDS011;40313;50.308;30.374;2023-03-11T00:27:56;14.73;;;12.95;;
54406;SDS011;40313;50.308;30.374;2023-03-11T00:30:23;20.42;;;13.57;;
54406;SDS011;40313;50.308;30.374;2023-03-11T00:32:51;17.63;;;12.90;;
54406;SDS011;40313;50.308;30.374;2023-03-11T00:35:20;18.17;;;13.00;;
54406;SDS011;40313;50.308;30.374;2023-03-11T00:37:51;14.93;;;13.60;;
54406;SDS011;40313;50.308;30.374;2023-03-11T00:40:19;14.95;;;13.65;;
54406;SDS011;40313;50.308;30.374;2023-03-11T00:42:48;22.83;;;13.98;;
54406;SDS011;40313;50.308;30.374;2023-03-11T00:45:15;13.65;;;12.38;;
54406;SDS011;40313;50.308;30.374;2023-03-11T00:47:41;15.15;;;13.70;;
54406;SDS011;40313;50.308;30.374;2023-03-11T00:50:09;19.63;;;14.18;;
54406;SDS011;40313;50.308;30.374;2023-03-11T00:52:41;22.42;;;14.48;;
54406;SDS011;40313;50.308;30.374;2023-03-11T00:55:09;19.75;;;14.15;;
54406;SDS011;40313;50.308;30.374;2023-03-11T00:57:37;21.95;;;13.50;;
54406;SDS011;40313;50.308;30.374;2023-03-11T01:00:06;18.35;;;14.88;;
54406;SDS011;40313;50.308;30.374;2023-03-11T01:02:36;20.08;;;13.85;;
54406;SDS011;40313;50.308;30.374;2023-03-11T01:05:02;16.40;;;14.43;;
54406;SDS011;40313;50.308;30.374;2023-03-11T01:07:29;20.63;;;13.60;;
54406;SDS011;40313;50.308;30.374;2023-03-11T01:09:57;21.23;;;13.68;;
54406;SDS011;40313;50.308;30.374;2023-03-11T01:12:24;16.65;;;12.82;;
54406;SDS011;40313;50.308;30.374;2023-03-11T01:14:50;18.73;;;13.23;;
54406;SDS011;40313;50.308;30.374;2023-03-11T01:17:18;19.52;;;13.35;;
54406;SDS011;40313;50.308;30.374;2023-03-11T01:19:46;18.30;;;13.55;;
54406;SDS011;40313;50.308;30.374;2023-03-11T01:22:12;20.35;;;13.70;;
54406;SDS011;40313;50.308;30.374;2023-03-11T01:24:39;15.05;;;12.45;;
54406;SDS011;40313;50.308;30.374;2023-03-11T01:27:06;18.63;;;13.68;;
54406;SDS011;40313;50.308;30.374;2023-03-11T01:29:32;15.10;;;13.10;;
54406;SDS011;40313;50.308;30.374;2023-03-11T01:31:59;25.85;;;13.98;;
54406;SDS011;40313;50.308;30.374;2023-03-11T01:34:27;17.35;;;13.57;;
54406;SDS011;40313;50.308;30.374;2023-03-11T01:36:53;15.60;;;13.77;;
54406;SDS011;40313;50.308;30.374;2023-03-11T01:39:19;19.40;;;13.73;;
54406;SDS011;40313;50.308;30.374;2023-03-11T01:41:46;21.50;;;12.65;;
54406;SDS011;40313;50.308;30.374;2023-03-11T01:44:12;19.48;;;13.25;;
54406;SDS011;40313;50.308;30.374;2023-03-11T01:49:40;15.48;;;13.00;;
54406;SDS011;40313;50.308;30.374;2023-03-11T01:52:07;13.93;;;12.55;;
54406;SDS011;40313;50.308;30.374;2023-03-11T01:54:35;17.77;;;13.48;;
54406;SDS011;40313;50.308;30.374;2023-03-11T01:57:04;18.08;;;13.95;;
54406;SDS011;40313;50.308;30.374;2023-03-11T01:59:35;16.05;;;13.80;;
54406;SDS011;40313;50.308;30.374;2023-03-11T02:02:05;26.42;;;13.85;;
54406;SDS011;40313;50.308;30.374;2023-03-11T02:04:36;17.02;;;12.90;;
54406;SDS011;40313;50.308;30.374;2023-03-11T02:07:07;19.30;;;12.52;;
54406;SDS011;40313;50.308;30.374;2023-03-11T02:09:35;12.80;;;11.63;;
54406;SDS011;40313;50.308;30.374;2023-03-11T02:12:02;21.15;;;12.63;;
54406;SDS011;40313;50.308;30.374;2023-03-11T02:14:30;25.52;;;13.40;;
54406;SDS011;40313;50.308;30.374;2023-03-11T02:16:57;18.38;;;12.57;;
54406;SDS011;40313;50.308;30.374;2023-03-11T02:19:26;15.32;;;11.57;;
54406;SDS011;40313;50.308;30.374;2023-03-11T02:22:03;13.88;;;12.45;;
54406;SDS011;40313;50.308;30.374;2023-03-11T02:24:34;13.43;;;11.52;;
54406;SDS011;40313;50.308;30.374;2023-03-11T02:27:08;13.00;;;11.68;;
54406;SDS011;40313;50.308;30.374;2023-03-11T02:29:37;14.55;;;12.20;;
54406;SDS011;40313;50.308;30.374;2023-03-11T02:32:06;15.02;;;11.90;;
54406;SDS011;40313;50.308;30.374;2023-03-11T02:34:35;13.88;;;12.40;;
54406;SDS011;40313;50.308;30.374;2023-03-11T02:37:04;12.95;;;11.82;;
54406;SDS011;40313;50.308;30.374;2023-03-11T02:39:33;12.70;;;11.48;;
54406;SDS011;40313;50.308;30.374;2023-03-11T02:42:03;13.27;;;11.88;;
54406;SDS011;40313;50.308;30.374;2023-03-11T02:44:33;13.85;;;10.57;;
54406;SDS011;40313;50.308;30.374;2023-03-11T02:47:00;13.52;;;10.88;;
54406;SDS011;40313;50.308;30.374;2023-03-11T02:49:27;11.68;;;10.50;;
54406;SDS011;40313;50.308;30.374;2023-03-11T02:51:54;14.38;;;11.68;;
54406;SDS011;40313;50.308;30.374;2023-03-11T02:54:21;14.27;;;10.38;;
54406;SDS011;40313;50.308;30.374;2023-03-11T02:56:48;11.15;;;10.20;;
54406;SDS011;40313;50.308;30.374;2023-03-11T02:59:14;11.88;;;10.73;;
54406;SDS011;40313;50.308;30.374;2023-03-11T03:01:43;10.57;;;9.65;;
54406;SDS011;40313;50.308;30.374;2023-03-11T03:04:09;13.13;;;11.90;;
54406;SDS011;40313;50.308;30.374;2023-03-11T03:06:36;13.15;;;11.75;;
54406;SDS011;40313;50.308;30.374;2023-03-11T03:09:03;14.52;;;11.02;;
54406;SDS011;40313;50.308;30.374;2023-03-11T03:11:29;17.33;;;9.93;;
54406;SDS011;40313;50.308;30.374;2023-03-11T03:13:56;11.25;;;10.25;;
54406;SDS011;40313;50.308;30.374;2023-03-11T03:16:22;11.55;;;10.27;;
54406;SDS011;40313;50.308;30.374;2023-03-11T03:18:50;12.48;;;11.23;;
54406;SDS011;40313;50.308;30.374;2023-03-11T03:21:17;14.75;;;11.70;;
54406;SDS011;40313;50.308;30.374;2023-03-11T03:23:43;12.45;;;11.38;;
54406;SDS011;40313;50.308;30.374;2023-03-11T03:26:11;15.27;;;11.07;;
54406;SDS011;40313;50.308;30.374;2023-03-11T03:28:39;12.45;;;11.20;;
54406;SDS011;40313;50.308;30.374;2023-03-11T03:31:06;15.02;;;12.45;;
54406;SDS011;40313;50.308;30.374;2023-03-11T03:33:34;12.70;;;11.40;;
54406;SDS011;40313;50.308;30.374;2023-03-11T03:36:05;15.52;;;13.05;;
54406;SDS011;40313;50.308;30.374;2023-03-11T03:38:32;12.65;;;11.27;;
54406;SDS011;40313;50.308;30.374;2023-03-11T03:40:59;14.80;;;12.40;;
54406;SDS011;40313;50.308;30.374;2023-03-11T03:43:25;15.38;;;12.25;;
54406;SDS011;40313;50.308;30.374;2023-03-11T03:45:55;16.13;;;11.98;;
54406;SDS011;40313;50.308;30.374;2023-03-11T03:48:22;13.15;;;11.82;;
54406;SDS011;40313;50.308;30.374;2023-03-11T03:50:49;13.00;;;11.70;;
54406;SDS011;40313;50.308;30.374;2023-03-11T03:53:17;13.90;;;12.63;;
54406;SDS011;40313;50.308;30.374;2023-03-11T03:55:44;15.13;;;13.15;;
54406;SDS011;40313;50.308;30.374;2023-03-11T03:58:10;19.40;;;12.88;;
54406;SDS011;40313;50.308;30.374;2023-03-11T04:00:37;17.50;;;12.38;;
54406;SDS011;40313;50.308;30.374;2023-03-11T04:03:04;14.95;;;12.20;;
54406;SDS011;40313;50.308;30.374;2023-03-11T04:05:30;19.73;;;13.23;;
54406;SDS011;40313;50.308;30.374;2023-03-11T04:07:57;13.40;;;12.02;;
54406;SDS011;40313;50.308;30.374;2023-03-11T04:10:25;13.70;;;12.43;;
54406;SDS011;40313;50.308;30.374;2023-03-11T04:12:52;14.68;;;13.23;;
54406;SDS011;40313;50.308;30.374;2023-03-11T04:15:19;15.15;;;13.63;;
54406;SDS011;40313;50.308;30.374;2023-03-11T04:17:46;13.75;;;12.40;;
54406;SDS011;40313;50.308;30.374;2023-03-11T04:20:12;15.00;;;13.60;;
54406;SDS011;40313;50.308;30.374;2023-03-11T04:22:39;15.50;;;13.95;;
54406;SDS011;40313;50.308;30.374;2023-03-11T04:25:05;16.10;;;13.25;;
54406;SDS011;40313;50.308;30.374;2023-03-11T04:27:34;15.85;;;14.15;;
54406;SDS011;40313;50.308;30.374;2023-03-11T04:30:02;15.88;;;14.38;;
54406;SDS011;40313;50.308;30.374;2023-03-11T04:32:30;16.00;;;12.80;;
54406;SDS011;40313;50.308;30.374;2023-03-11T04:34:56;17.40;;;13.63;;
54406;SDS011;40313;50.308;30.374;2023-03-11T04:37:26;17.77;;;14.23;;
54406;SDS011;40313;50.308;30.374;2023-03-11T04:39:53;19.17;;;15.10;;
54406;SDS011;40313;50.308;30.374;2023-03-11T04:42:19;19.95;;;15.15;;
54406;SDS011;40313;50.308;30.374;2023-03-11T04:44:47;21.77;;;15.30;;
54406;SDS011;40313;50.308;30.374;2023-03-11T04:47:14;20.90;;;15.52;;
54406;SDS011;40313;50.308;30.374;2023-03-11T04:49:40;23.95;;;16.23;;
54406;SDS011;40313;50.308;30.374;2023-03-11T04:52:07;17.52;;;15.73;;
54406;SDS011;40313;50.308;30.374;2023-03-11T04:54:33;27.05;;;17.60;;
54406;SDS011;40313;50.308;30.374;2023-03-11T04:57:00;17.48;;;15.70;;
54406;SDS011;40313;50.308;30.374;2023-03-11T04:59:26;22.83;;;17.08;;
54406;SDS011;40313;50.308;30.374;2023-03-11T05:01:54;20.33;;;15.95;;
54406;SDS011;40313;50.308;30.374;2023-03-11T05:04:21;27.70;;;16.65;;
54406;SDS011;40313;50.308;30.374;2023-03-11T05:06:47;22.63;;;16.35;;
54406;SDS011;40313;50.308;30.374;2023-03-11T05:09:16;19.65;;;15.23;;
54406;SDS011;40313;50.308;30.374;2023-03-11T05:11:42;21.73;;;16.52;;
54406;SDS011;40313;50.308;30.374;2023-03-11T05:14:09;22.90;;;16.08;;
54406;SDS011;40313;50.308;30.374;2023-03-11T05:16:35;22.90;;;16.73;;
54406;SDS011;40313;50.308;30.374;2023-03-11T05:19:03;18.80;;;16.63;;
54406;SDS011;40313;50.308;30.374;2023-03-11T05:21:50;28.40;;;19.33;;
54406;SDS011;40313;50.308;30.374;2023-03-11T05:24:17;32.53;;;20.38;;
54406;SDS011;40313;50.308;30.374;2023-03-11T05:26:44;32.05;;;19.05;;
54406;SDS011;40313;50.308;30.374;2023-03-11T05:29:10;36.63;;;22.50;;
54406;SDS011;40313;50.308;30.374;2023-03-11T05:31:37;25.93;;;17.10;;
54406;SDS011;40313;50.308;30.374;2023-03-11T05:34:05;21.23;;;16.60;;
54406;SDS011;40313;50.308;30.374;2023-03-11T05:36:31;19.42;;;16.52;;
54406;SDS011;40313;50.308;30.374;2023-03-11T05:38:58;27.02;;;16.48;;
54406;SDS011;40313;50.308;30.374;2023-03-11T05:41:24;22.40;;;16.35;;
54406;SDS011;40313;50.308;30.374;2023-03-11T05:43:51;28.10;;;17.15;;
54406;SDS011;40313;50.308;30.374;2023-03-11T05:46:17;23.00;;;17.60;;
54406;SDS011;40313;50.308;30.374;2023-03-11T05:48:45;32.30;;;18.35;;
54406;SDS011;40313;50.308;30.374;2023-03-11T05:51:13;22.25;;;18.33;;
54406;SDS011;40313;50.308;30.374;2023-03-11T05:53:40;22.13;;;18.02;;
54406;SDS011;40313;50.308;30.374;2023-03-11T05:56:12;26.38;;;18.85;;
54406;SDS011;40313;50.308;30.374;2023-03-11T05:58:39;19.65;;;17.58;;
54406;SDS011;40313;50.308;30.374;2023-03-11T06:01:06;21.00;;;18.33;;
54406;SDS011;40313;50.308;30.374;2023-03-11T06:03:34;38.50;;;18.35;;
54406;SDS011;40313;50.308;30.374;2023-03-11T06:06:00;29.42;;;18.55;;
54406;SDS011;40313;50.308;30.374;2023-03-11T06:08:28;23.87;;;19.60;;
54406;SDS011;40313;50.308;30.374;2023-03-11T06:10:59;29.30;;;20.00;;
54406;SDS011;40313;50.308;30.374;2023-03-11T06:13:26;24.65;;;19.52;;
54406;SDS011;40313;50.308;30.374;2023-03-11T06:15:53;30.63;;;20.77;;
54406;SDS011;40313;50.308;30.374;2023-03-11T06:18:19;26.60;;;20.00;;
54406;SDS011;40313;50.308;30.374;2023-03-11T06:20:46;30.20;;;20.10;;
54406;SDS011;40313;50.308;30.374;2023-03-11T06:23:13;40.60;;;21.97;;
54406;SDS011;40313;50.308;30.374;2023-03-11T06:25:41;29.67;;;19.08;;
54406;SDS011;40313;50.308;30.374;2023-03-11T06:28:08;23.75;;;18.70;;
54406;SDS011;40313;50.308;30.374;2023-03-11T06:30:35;30.20;;;19.40;;
54406;SDS011;40313;50.308;30.374;2023-03-11T06:33:01;26.65;;;19.60;;
54406;SDS011;40313;50.308;30.374;2023-03-11T06:35:28;26.67;;;19.55;;
54406;SDS011;40313;50.308;30.374;2023-03-11T06:37:54;24.33;;;18.90;;
54406;SDS011;40313;50.308;30.374;2023-03-11T06:40:21;29.98;;;19.40;;
54406;SDS011;40313;50.308;30.374;2023-03-11T06:42:49;27.48;;;19.85;;
54406;SDS011;40313;50.308;30.374;2023-03-11T06:45:16;29.08;;;19.88;;
54406;SDS011;40313;50.308;30.374;2023-03-11T06:47:43;27.38;;;21.15;;
54406;SDS011;40313;50.308;30.374;2023-03-11T06:50:09;31.90;;;21.35;;
54406;SDS011;40313;50.308;30.374;2023-03-11T06:52:36;37.90;;;21.17;;
54406;SDS011;40313;50.308;30.374;2023-03-11T06:55:03;26.27;;;20.48;;
54406;SDS011;40313;50.308;30.374;2023-03-11T06:57:30;20.58;;;18.40;;
54406;SDS011;40313;50.308;30.374;2023-03-11T06:59:59;26.57;;;19.63;;
54406;SDS011;40313;50.308;30.374;2023-03-11T07:02:26;23.73;;;19.27;;
54406;SDS011;40313;50.308;30.374;2023-03-11T07:04:52;25.55;;;18.90;;
54406;SDS011;40313;50.308;30.374;2023-03-11T07:07:19;22.40;;;18.15;;
54406;SDS011;40313;50.308;30.374;2023-03-11T07:09:45;24.17;;;18.60;;
54406;SDS011;40313;50.308;30.374;2023-03-11T07:12:12;21.20;;;17.50;;
54406;SDS011;40313;50.308;30.374;2023-03-11T07:14:39;19.65;;;17.75;;
54406;SDS011;40313;50.308;30.374;2023-03-11T07:17:08;37.60;;;18.60;;
54406;SDS011;40313;50.308;30.374;2023-03-11T07:19:35;24.75;;;17.38;;
54406;SDS011;40313;50.308;30.374;2023-03-11T07:22:01;22.97;;;17.70;;
54406;SDS011;40313;50.308;30.374;2023-03-11T07:24:28;23.50;;;17.95;;
54406;SDS011;40313;50.308;30.374;2023-03-11T07:26:54;20.20;;;18.17;;
54406;SDS011;40313;50.308;30.374;2023-03-11T07:29:21;29.60;;;17.60;;
54406;SDS011;40313;50.308;30.374;2023-03-11T07:31:47;24.37;;;16.47;;
54406;SDS011;40313;50.308;30.374;2023-03-11T07:34:15;22.00;;;15.67;;
54406;SDS011;40313;50.308;30.374;2023-03-11T07:36:42;24.90;;;16.17;;
54406;SDS011;40313;50.308;30.374;2023-03-11T07:39:10;23.10;;;16.20;;
54406;SDS011;40313;50.308;30.374;2023-03-11T07:41:39;20.90;;;16.30;;
54406;SDS011;40313;50.308;30.374;2023-03-11T07:44:05;24.07;;;16.27;;
54406;SDS011;40313;50.308;30.374;2023-03-11T07:46:32;31.63;;;16.60;;
54406;SDS011;40313;50.308;30.374;2023-03-11T07:48:59;24.90;;;16.30;;
54406;SDS011;40313;50.308;30.374;2023-03-11T07:51:30;25.80;;;17.50;;
54406;SDS011;40313;50.308;30.374;2023-03-11T07:53:58;25.98;;;16.60;;
54406;SDS011;40313;50.308;30.374;2023-03-11T07:56:26;22.83;;;17.42;;
54406;SDS011;40313;50.308;30.374;2023-03-11T07:58:54;24.13;;;18.10;;
54406;SDS011;40313;50.308;30.374;2023-03-11T08:21:06;37.50;;;23.23;;
54406;SDS011;40313;50.308;30.374;2023-03-11T08:23:34;27.42;;;22.00;;
54406;SDS011;40313;50.308;30.374;2023-03-11T08:26:03;27.60;;;20.13;;
54406;SDS011;40313;50.308;30.374;2023-03-11T08:50:31;46.25;;;22.50;;
54406;SDS011;40313;50.308;30.374;2023-03-11T09:02:48;34.40;;;25.50;;
54406;SDS011;40313;50.308;30.374;2023-03-11T09:05:15;46.50;;;25.30;;
54406;SDS011;40313;50.308;30.374;2023-03-11T09:07:41;37.20;;;24.80;;
54406;SDS011;40313;50.308;30.374;2023-03-11T09:15:03;39.50;;;22.90;;
54406;SDS011;40313;50.308;30.374;2023-03-11T09:19:57;37.50;;;24.20;;
54406;SDS011;40313;50.308;30.374;2023-03-11T09:22:24;34.70;;;23.80;;
54406;SDS011;40313;50.308;30.374;2023-03-11T09:24:50;36.80;;;24.20;;
54406;SDS011;40313;50.308;30.374;2023-03-11T09:27:17;37.55;;;24.20;;
54406;SDS011;40313;50.308;30.374;2023-03-11T09:32:10;35.40;;;22.38;;
54406;SDS011;40313;50.308;30.374;2023-03-11T09:34:39;31.90;;;21.25;;
54406;SDS011;40313;50.308;30.374;2023-03-11T09:37:06;31.58;;;19.45;;
54406;SDS011;40313;50.308;30.374;2023-03-11T09:39:33;47.30;;;27.17;;
54406;SDS011;40313;50.308;30.374;2023-03-11T09:42:00;35.00;;;23.48;;
54406;SDS011;40313;50.308;30.374;2023-03-11T09:44:36;52.60;;;30.48;;
54406;SDS011;40313;50.308;30.374;2023-03-11T09:47:15;50.03;;;31.10;;
54406;SDS011;40313;50.308;30.374;2023-03-11T09:50:05;53.00;;;30.08;;
54406;SDS011;40313;50.308;30.374;2023-03-11T09:53:09;45.25;;;28.30;;
54406;SDS011;40313;50.308;30.374;2023-03-11T09:55:45;53.83;;;31.52;;
54406;SDS011;40313;50.308;30.374;2023-03-11T09:58:16;44.45;;;26.52;;
54406;SDS011;40313;50.308;30.374;2023-03-11T10:00:48;54.70;;;30.77;;
54406;SDS011;40313;50.308;30.374;2023-03-11T10:03:26;54.30;;;29.98;;
54406;SDS011;40313;50.308;30.374;2023-03-11T10:06:00;55.42;;;33.90;;
54406;SDS011;40313;50.308;30.374;2023-03-11T10:08:33;56.88;;;28.88;;
54406;SDS011;40313;50.308;30.374;2023-03-11T10:11:10;54.03;;;33.22;;
54406;SDS011;40313;50.308;30.374;2023-03-11T10:13:45;63.53;;;33.33;;
54406;SDS011;40313;50.308;30.374;2023-03-11T10:16:21;67.90;;;35.20;;
54406;SDS011;40313;50.308;30.374;2023-03-11T10:18:56;51.85;;;31.90;;
54406;SDS011;40313;50.308;30.374;2023-03-11T10:24:10;59.20;;;32.40;;
54406;SDS011;40313;50.308;30.374;2023-03-11T10:26:58;63.95;;;36.47;;
54406;SDS011;40313;50.308;30.374;2023-03-11T10:29:28;64.65;;;35.70;;
54406;SDS011;40313;50.308;30.374;2023-03-11T10:31:59;56.85;;;34.15;;
54406;SDS011;40313;50.308;30.374;2023-03-11T10:34:32;60.08;;;34.53;;
54406;SDS011;40313;50.308;30.374;2023-03-11T10:37:04;61.50;;;32.83;;
54406;SDS011;40313;50.308;30.374;2023-03-11T10:39:36;54.58;;;33.08;;
54406;SDS011;40313;50.308;30.374;2023-03-11T10:42:09;53.35;;;30.85;;
54406;SDS011;40313;50.308;30.374;2023-03-11T10:44:38;45.67;;;28.23;;
54406;SDS011;40313;50.308;30.374;2023-03-11T10:47:09;41.35;;;29.30;;
54406;SDS011;40313;50.308;30.374;2023-03-11T10:49:41;55.80;;;31.02;;
54406;SDS011;40313;50.308;30.374;2023-03-11T10:52:09;46.75;;;29.00;;
54406;SDS011;40313;50.308;30.374;2023-03-11T10:54:36;47.17;;;29.77;;
54406;SDS011;40313;50.308;30.374;2023-03-11T10:57:18;44.45;;;29.75;;
54406;SDS011;40313;50.308;30.374;2023-03-11T10:59:47;45.65;;;30.02;;
54406;SDS011;40313;50.308;30.374;2023-03-11T11:02:23;54.08;;;31.55;;
54406;SDS011;40313;50.308;30.374;2023-03-11T11:05:05;50.83;;;31.52;;
54406;SDS011;40313;50.308;30.374;2023-03-11T11:07:48;61.92;;;31.73;;
54406;SDS011;40313;50.308;30.374;2023-03-11T11:10:17;63.55;;;32.92;;
54406;SDS011;40313;50.308;30.374;2023-03-11T11:12:53;55.53;;;33.80;;
54406;SDS011;40313;50.308;30.374;2023-03-11T11:15:23;58.55;;;33.20;;
54406;SDS011;40313;50.308;30.374;2023-03-11T11:17:52;49.65;;;32.80;;
54406;SDS011;40313;50.308;30.374;2023-03-11T11:20:22;48.95;;;31.38;;
54406;SDS011;40313;50.308;30.374;2023-03-11T11:22:52;52.40;;;30.45;;
54406;SDS011;40313;50.308;30.374;2023-03-11T11:25:28;58.70;;;30.92;;
54406;SDS011;40313;50.308;30.374;2023-03-11T11:27:58;53.63;;;32.17;;
54406;SDS011;40313;50.308;30.374;2023-03-11T11:30:26;48.67;;;28.85;;
54406;SDS011;40313;50.308;30.374;2023-03-11T11:32:54;49.33;;;30.38;;
54406;SDS011;40313;50.308;30.374;2023-03-11T11:35:21;59.42;;;30.15;;
54406;SDS011;40313;50.308;30.374;2023-03-11T11:37:49;48.67;;;29.05;;
54406;SDS011;40313;50.308;30.374;2023-03-11T11:40:22;51.75;;;30.38;;
54406;SDS011;40313;50.308;30.374;2023-03-11T11:42:52;58.33;;;29.08;;
54406;SDS011;40313;50.308;30.374;2023-03-11T11:45:23;53.20;;;31.63;;
54406;SDS011;40313;50.308;30.374;2023-03-11T11:47:54;63.25;;;32.35;;
54406;SDS011;40313;50.308;30.374;2023-03-11T11:50:25;52.45;;;31.88;;
54406;SDS011;40313;50.308;30.374;2023-03-11T11:52:57;49.95;;;31.27;;
54406;SDS011;40313;50.308;30.374;2023-03-11T11:55:31;54.97;;;32.92;;
54406;SDS011;40313;50.308;30.374;2023-03-11T11:57:59;68.18;;;34.15;;
54406;SDS011;40313;50.308;30.374;2023-03-11T12:00:27;65.30;;;35.78;;
54406;SDS011;40313;50.308;30.374;2023-03-11T12:03:08;61.10;;;34.38;;
54406;SDS011;40313;50.308;30.374;2023-03-11T12:05:51;70.88;;;35.40;;
54406;SDS011;40313;50.308;30.374;2023-03-11T12:08:25;79.22;;;37.95;;
54406;SDS011;40313;50.308;30.374;2023-03-11T12:11:01;87.90;;;37.60;;
54406;SDS011;40313;50.308;30.374;2023-03-11T12:16:21;69.63;;;37.13;;
54406;SDS011;40313;50.308;30.374;2023-03-11T12:18:53;74.75;;;37.92;;
54406;SDS011;40313;50.308;30.374;2023-03-11T12:21:27;74.32;;;37.20;;
54406;SDS011;40313;50.308;30.374;2023-03-11T12:24:17;74.28;;;35.03;;
54406;SDS011;40313;50.308;30.374;2023-03-11T12:26:56;65.47;;;34.45;;
54406;SDS011;40313;50.308;30.374;2023-03-11T12:29:27;73.88;;;36.50;;
54406;SDS011;40313;50.308;30.374;2023-03-11T12:31:59;68.03;;;33.15;;
54406;SDS011;40313;50.308;30.374;2023-03-11T12:34:27;67.25;;;32.38;;
54406;SDS011;40313;50.308;30.374;2023-03-11T12:36:57;60.63;;;32.97;;
54406;SDS011;40313;50.308;30.374;2023-03-11T12:39:28;51.10;;;30.55;;
54406;SDS011;40313;50.308;30.374;2023-03-11T12:44:43;56.10;;;29.98;;
54406;SDS011;40313;50.308;30.374;2023-03-11T12:49:55;76.80;;;34.20;;
54406;SDS011;40313;50.308;30.374;2023-03-11T12:53:10;55.83;;;27.85;;
54406;SDS011;40313;50.308;30.374;2023-03-11T12:55:52;64.85;;;28.38;;
54406;SDS011;40313;50.308;30.374;2023-03-11T12:58:44;50.22;;;26.05;;
54406;SDS011;40313;50.308;30.374;2023-03-11T13:01:29;61.75;;;28.02;;
54406;SDS011;40313;50.308;30.374;2023-03-11T13:04:26;62.92;;;26.92;;
54406;SDS011;40313;50.308;30.374;2023-03-11T13:10:09;69.78;;;26.92;;
54406;SDS011;40313;50.308;30.374;2023-03-11T13:12:40;82.03;;;27.98;;
54406;SDS011;40313;50.308;30.374;2023-03-11T13:15:18;63.25;;;28.65;;
54406;SDS011;40313;50.308;30.374;2023-03-11T13:17:55;101.25;;;28.05;;
54406;SDS011;40313;50.308;30.374;2023-03-11T13:20:44;103.20;;;28.10;;
54406;SDS011;40313;50.308;30.374;2023-03-11T13:23:26;116.45;;;28.23;;
54406;SDS011;40313;50.308;30.374;2023-03-11T13:26:18;95.13;;;31.15;;
54406;SDS011;40313;50.308;30.374;2023-03-11T13:29:12;175.80;;;36.05;;
54406;SDS011;40313;50.308;30.374;2023-03-11T13:32:11;165.77;;;34.15;;
54406;SDS011;40313;50.308;30.374;2023-03-11T13:34:53;78.80;;;30.20;;
54406;SDS011;40313;50.308;30.374;2023-03-11T13:37:28;110.20;;;32.45;;
54406;SDS011;40313;50.308;30.374;2023-03-11T13:40:10;554.42;;;57.75;;
54406;SDS011;40313;50.308;30.374;2023-03-11T13:42:45;418.20;;;53.00;;
54406;SDS011;40313;50.308;30.374;2023-03-11T13:45:18;671.63;;;70.13;;
54406;SDS011;40313;50.308;30.374;2023-03-11T13:47:52;496.80;;;58.95;;
54406;SDS011;40313;50.308;30.374;2023-03-11T13:50:23;335.88;;;52.00;;
54406;SDS011;40313;50.308;30.374;2023-03-11T13:52:53;207.20;;;48.88;;
54406;SDS011;40313;50.308;30.374;2023-03-11T13:55:24;480.75;;;56.55;;
54406;SDS011;40313;50.308;30.374;2023-03-11T13:57:56;219.48;;;50.70;;
54406;SDS011;40313;50.308;30.374;2023-03-11T14:00:25;575.75;;;67.10;;
54406;SDS011;40313;50.308;30.374;2023-03-11T14:02:54;619.30;;;65.15;;
54406;SDS011;40313;50.308;30.374;2023-03-11T14:05:23;239.02;;;53.90;;
54406;SDS011;40313;50.308;30.374;2023-03-11T14:07:51;439.42;;;57.78;;
54406;SDS011;40313;50.308;30.374;2023-03-11T14:10:23;561.00;;;67.43;;
54406;SDS011;40313;50.308;30.374;2023-03-11T14:13:02;339.48;;;58.30;;
54406;SDS011;40313;50.308;30.374;2023-03-11T14:15:32;664.15;;;63.03;;
54406;SDS011;40313;50.308;30.374;2023-03-11T14:18:25;313.95;;;53.63;;
54406;SDS011;40313;50.308;30.374;2023-03-11T14:23:32;583.65;;;63.53;;
54406;SDS011;40313;50.308;30.374;2023-03-11T14:26:05;559.95;;;51.15;;
54406;SDS011;40313;50.308;30.374;2023-03-11T14:28:35;395.17;;;47.38;;
54406;SDS011;40313;50.308;30.374;2023-03-11T14:31:06;253.55;;;44.70;;
54406;SDS011;40313;50.308;30.374;2023-03-11T14:33:52;584.25;;;55.95;;
54406;SDS011;40313;50.308;30.374;2023-03-11T14:36:20;436.17;;;49.22;;
54406;SDS011;40313;50.308;30.374;2023-03-11T14:38:46;465.77;;;54.65;;
54406;SDS011;40313;50.308;30.374;2023-03-11T14:41:13;278.50;;;43.70;;
54406;SDS011;40313;50.308;30.374;2023-03-11T14:43:41;526.55;;;54.10;;
54406;SDS011;40313;50.308;30.374;2023-03-11T14:46:14;449.15;;;55.78;;
54406;SDS011;40313;50.308;30.374;2023-03-11T14:48:45;572.28;;;60.15;;
54406;SDS011;40313;50.308;30.374;2023-03-11T14:51:13;410.05;;;54.42;;
54406;SDS011;40313;50.308;30.374;2023-03-11T14:53:43;636.60;;;70.45;;
54406;SDS011;40313;50.308;30.374;2023-03-11T14:56:14;289.80;;;57.17;;
54406;SDS011;40313;50.308;30.374;2023-03-11T14:58:45;204.30;;;58.08;;
54406;SDS011;40313;50.308;30.374;2023-03-11T15:01:16;102.57;;;48.33;;
54406;SDS011;40313;50.308;30.374;2023-03-11T15:03:47;90.00;;;44.97;;
54406;SDS011;40313;50.308;30.374;2023-03-11T15:06:18;86.93;;;40.92;;
54406;SDS011;40313;50.308;30.374;2023-03-11T15:08:47;68.28;;;30.58;;
54406;SDS011;40313;50.308;30.374;2023-03-11T15:11:19;68.43;;;29.98;;
54406;SDS011;40313;50.308;30.374;2023-03-11T15:13:48;70.10;;;30.42;;
54406;SDS011;40313;50.308;30.374;2023-03-11T15:19:19;77.00;;;32.10;;
54406;SDS011;40313;50.308;30.374;2023-03-11T15:21:48;96.95;;;44.67;;
54406;SDS011;40313;50.308;30.374;2023-03-11T15:24:19;114.13;;;44.20;;
54406;SDS011;40313;50.308;30.374;2023-03-11T15:26:52;130.50;;;50.63;;
54406;SDS011;40313;50.308;30.374;2023-03-11T15:29:20;105.10;;;46.75;;
54406;SDS011;40313;50.308;30.374;2023-03-11T15:31:48;99.03;;;47.40;;
54406;SDS011;40313;50.308;30.374;2023-03-11T15:37:04;101.10;;;41.30;;
54406;SDS011;40313;50.308;30.374;2023-03-11T15:39:47;89.53;;;37.75;;
54406;SDS011;40313;50.308;30.374;2023-03-11T15:42:21;83.15;;;34.25;;
54406;SDS011;40313;50.308;30.374;2023-03-11T15:47:40;59.88;;;28.23;;
54406;SDS011;40313;50.308;30.374;2023-03-11T15:50:13;67.35;;;29.63;;
54406;SDS011;40313;50.308;30.374;2023-03-11T15:52:43;66.93;;;29.70;;
54406;SDS011;40313;50.308;30.374;2023-03-11T15:55:10;68.63;;;29.95;;